Vivien A — TCYC4 — position and weather

sailwx.info

Track history (hours):
 
Tides and Currents Weather Stations Pressure Air Temp Water Temp Dewpoint Dewpoint Depression Visibility Wind Speed Wind Dir Waves Ship Positions

Vivien A

Last reported at 2016-May-28 00:25 UTC. Time now 2016-May-31 10:01 UTC.
Position N 05°09' W 004°02'.

Length 210 m; draft 8.3 m.

Type: Ship (hazmat cat A). MMSI: 271040635.

Date/timePositionNaut miles runAvg speedWind from/ knotsBaromVisibWave heightAir tempDewpointWater temp
2016-May-28 00:25N 05°09' W 004°02'6 7.0
2016-May-27 23:33N 05°15' W 004°01'1 0.9
2016-May-27 22:19N 05°16' W 004°01'0 0.0
2016-May-27 21:24N 05°16' W 004°01'0 0.0
2016-May-27 20:27N 05°16' W 004°01'0 0.0
2016-May-27 19:33N 05°16' W 004°01'0 0.0
2016-May-27 18:27N 05°16' W 004°01'0 0.0
2016-May-27 17:33N 05°16' W 004°01'0 0.0
2016-May-27 16:33N 05°16' W 004°01'0 0.0
2016-May-27 15:27N 05°16' W 004°01'0 0.0
2016-May-27 14:33N 05°16' W 004°01'0 0.0
2016-May-27 13:33N 05°16' W 004°01'0 0.0
2016-May-27 12:33N 05°16' W 004°01'0 0.0
2016-May-27 11:33N 05°16' W 004°01'3 2.8
2016-May-27 10:33N 05°14' W 003°59'4 3.6
2016-May-27 09:30N 05°12' W 004°02'0 0.0
2016-May-26 23:17N 05°13' W 004°02'0 0.0
2016-May-26 22:29N 05°13' W 004°02'0 0.0
2016-May-26 14:23N 05°13' W 004°02'0 0.0
2016-May-26 12:29N 05°13' W 004°02'0 0.0
2016-May-26 10:17N 05°13' W 004°02'0 0.0
2016-May-26 07:11N 05°13' W 004°02'0 0.0
2016-May-25 18:17N 05°13' W 004°02'0 0.0
2016-May-25 15:17N 05°13' W 004°02'0 0.1
2016-May-25 14:21N 05°13' W 004°02'5 6.4
2016-May-25 13:32N 05°09' W 003°59'  
Track history (hours):
 
Tides and Currents Weather Stations Pressure Air Temp Water Temp Dewpoint Dewpoint Depression Visibility Wind Speed Wind Dir Waves Ship Positions

Vivien A

Last reported at 2016-May-28 00:25 UTC. Time now 2016-May-31 10:01 UTC.
Position N 05°09' W 004°02'.

Length 210 m; draft 8.3 m.

Type: Ship (hazmat cat A). MMSI: 271040635.

Date/timePositionNaut miles runAvg speedWind from/ knotsBaromVisibWave heightAir tempDewpointWater temp
2016-May-28 00:25N 05°09' W 004°02'6 7.0
2016-May-27 23:33N 05°15' W 004°01'1 0.9
2016-May-27 22:19N 05°16' W 004°01'0 0.0
2016-May-27 21:24N 05°16' W 004°01'0 0.0
2016-May-27 20:27N 05°16' W 004°01'0 0.0
2016-May-27 19:33N 05°16' W 004°01'0 0.0
2016-May-27 18:27N 05°16' W 004°01'0 0.0
2016-May-27 17:33N 05°16' W 004°01'0 0.0
2016-May-27 16:33N 05°16' W 004°01'0 0.0
2016-May-27 15:27N 05°16' W 004°01'0 0.0
2016-May-27 14:33N 05°16' W 004°01'0 0.0
2016-May-27 13:33N 05°16' W 004°01'0 0.0
2016-May-27 12:33N 05°16' W 004°01'0 0.0
2016-May-27 11:33N 05°16' W 004°01'3 2.8
2016-May-27 10:33N 05°14' W 003°59'4 3.6
2016-May-27 09:30N 05°12' W 004°02'0 0.0
2016-May-26 23:17N 05°13' W 004°02'0 0.0
2016-May-26 22:29N 05°13' W 004°02'0 0.0
2016-May-26 14:23N 05°13' W 004°02'0 0.0
2016-May-26 12:29N 05°13' W 004°02'0 0.0
2016-May-26 10:17N 05°13' W 004°02'0 0.0
2016-May-26 07:11N 05°13' W 004°02'0 0.0
2016-May-25 18:17N 05°13' W 004°02'0 0.0
2016-May-25 15:17N 05°13' W 004°02'0 0.1
2016-May-25 14:21N 05°13' W 004°02'5 6.4
2016-May-25 13:32N 05°09' W 003°59'  

Dump ship's entire track history